الصفحة الرئيسية
METAR-TAF:

METAR-TAF

مطار :

Kecskemét, المجر

دائرة عرض: 46-55N, خط طول: 019-45E, ارتفاع: 113 متر

مراقبة الطقس الحالي

تاريخ ووقت الإصدار 51 دقيقة قبل الساعة 17:45UTC
ريح 6 عقدة من الغرب
درجة الحرارة 10°درجة مئوية
الرطوبة 50%
ضغط 1015 hPa
الرؤية 10 كم أو أكثر
الغيوم لا تقل 1500 م ولا وجود لمزنة ركامية السحاب الأسود

METAR: LHKE 041745Z 28006KT CAVOK 10/M00 Q1015 R12/01//95 NOSIG RMK BLU

زمن: 19:36 (18:36 UTC)

توقعات

تاريخ ووقت الإصدار 1ساعة و 21 دقيقة قبل الساعة 17:15UTC
التوقعات صالحة من04 الساعة 18 UTC إلى 05 الساعة 03 UTC
ريح 5 عقدة من الغرب
الرؤية 10 كم أو أكثر
الغيوم لا تقل 1500 م ولا وجود لمزنة ركامية السحاب الأسود
أصبح
من 04 الساعة 21 UTC إلى 04 الساعة 24 UTC
ريح 6 عقدة من الجنوب الغربي

TAF: LHKE 041715Z 0418/0503 28005KT CAVOK BECMG 0421/0424 23006KT

أرصاد الطقس والتوقعات من أكثر من 4000 مطار (تقارير الطقس للمطار METAR والتنبؤ بالطقس بالمطارTAF).

المحطات المتاحة هي النقط الصفراء والحمراء على الخريطة.

حرك المؤشر فوق النقطة لمعرفة اسم المحطة.

ثم انقر لمعرفة أرصاد وتوقعات الطقس.

لتغيير الخارطة: اضغط على الأزرار الخضراء مع رمز الصليب الأسود للتكبير. على الزر الأخضر مع شرطة للتصغير، أو على الأسهم الخضراء للخرائط المجاورة.


METAR-TAF: